createdAt,value
2022-12-16T00:00:28.788Z,985.29
2022-12-16T00:01:28.785Z,985.33
2022-12-16T00:02:28.819Z,985.30
2022-12-16T00:03:28.861Z,985.31
2022-12-16T00:04:28.741Z,985.27
2022-12-16T00:05:28.729Z,985.32
2022-12-16T00:06:28.750Z,985.21
2022-12-16T00:07:28.719Z,985.32
2022-12-16T00:08:28.719Z,985.32
2022-12-16T00:09:28.712Z,985.28
2022-12-16T00:10:28.711Z,985.31
2022-12-16T00:11:28.736Z,985.30
2022-12-16T00:12:28.693Z,985.34
2022-12-16T00:13:28.729Z,985.33
2022-12-16T00:14:28.679Z,985.36
2022-12-16T00:15:28.672Z,985.29
2022-12-16T00:16:28.744Z,985.39
2022-12-16T00:17:28.661Z,985.35
2022-12-16T00:18:28.665Z,985.30
2022-12-16T00:19:28.653Z,985.31
2022-12-16T00:20:28.639Z,985.29
2022-12-16T00:21:28.665Z,985.24
2022-12-16T00:22:28.621Z,985.17
2022-12-16T00:23:28.719Z,985.25
2022-12-16T00:24:28.610Z,985.18
2022-12-16T00:25:28.606Z,985.25
2022-12-16T00:26:28.597Z,985.17
2022-12-16T00:27:28.615Z,985.20
2022-12-16T00:28:28.586Z,985.31
2022-12-16T00:29:28.577Z,985.28
2022-12-16T00:30:28.573Z,985.25
2022-12-16T00:31:28.613Z,985.27
2022-12-16T00:32:28.555Z,985.24
2022-12-16T00:33:28.603Z,985.24
2022-12-16T00:34:28.546Z,985.27
2022-12-16T00:35:28.536Z,985.23
2022-12-16T00:36:28.542Z,985.24
2022-12-16T00:37:28.546Z,985.26
2022-12-16T00:38:28.514Z,985.31
2022-12-16T00:39:28.509Z,985.24
2022-12-16T00:40:28.516Z,985.27
2022-12-16T00:41:28.500Z,985.24
2022-12-16T00:42:28.509Z,985.29
2022-12-16T00:43:28.488Z,985.29
2022-12-16T00:44:28.466Z,985.31
2022-12-16T00:45:28.507Z,985.25
2022-12-16T00:46:28.455Z,985.25
2022-12-16T00:47:28.483Z,985.29
2022-12-16T00:48:28.448Z,985.19
2022-12-16T00:49:28.454Z,985.22
2022-12-16T00:50:28.427Z,985.23
2022-12-16T00:51:28.430Z,985.21
2022-12-16T00:52:28.443Z,985.25
2022-12-16T00:53:28.419Z,985.17
2022-12-16T00:54:28.402Z,985.23
2022-12-16T00:55:28.398Z,985.28
2022-12-16T00:56:28.397Z,985.32
2022-12-16T00:57:28.407Z,985.22
2022-12-16T00:58:28.379Z,985.28
2022-12-16T00:59:28.367Z,985.32
2022-12-16T01:00:28.364Z,985.24
2022-12-16T01:01:28.477Z,985.23
2022-12-16T01:02:28.465Z,985.23
2022-12-16T01:03:28.407Z,985.22
2022-12-16T01:04:28.335Z,985.21
2022-12-16T01:05:28.325Z,985.22
2022-12-16T01:06:28.341Z,985.29
2022-12-16T01:07:28.343Z,985.22
2022-12-16T01:08:28.301Z,985.27
2022-12-16T01:09:28.284Z,985.24
2022-12-16T01:10:29.285Z,985.23
2022-12-16T01:11:28.277Z,985.21
2022-12-16T01:12:28.309Z,985.18
2022-12-16T01:13:28.273Z,985.25
2022-12-16T01:14:28.258Z,985.23
2022-12-16T01:15:29.257Z,985.21
2022-12-16T01:16:28.287Z,985.22
2022-12-16T01:17:28.266Z,985.26
2022-12-16T01:18:28.237Z,985.29
2022-12-16T01:19:28.230Z,985.28
2022-12-16T01:20:28.223Z,985.27
2022-12-16T01:21:28.215Z,985.27
2022-12-16T01:22:28.231Z,985.29
2022-12-16T01:23:28.205Z,985.30
2022-12-16T01:24:28.203Z,985.26
2022-12-16T01:25:28.191Z,985.32
2022-12-16T01:26:28.213Z,985.26
2022-12-16T01:27:28.197Z,985.32
2022-12-16T01:28:28.175Z,985.33
2022-12-16T01:29:28.158Z,985.32
2022-12-16T01:30:28.158Z,985.35
2022-12-16T01:31:28.223Z,985.37
2022-12-16T01:32:28.165Z,985.37
2022-12-16T01:33:28.134Z,985.43
2022-12-16T01:34:28.121Z,985.44
2022-12-16T01:35:52.577Z,985.39
2022-12-16T01:36:30.118Z,985.39
2022-12-16T01:37:28.128Z,985.44
2022-12-16T01:38:28.097Z,985.39
2022-12-16T01:39:28.096Z,985.32
2022-12-16T01:40:28.084Z,985.35
2022-12-16T01:41:28.082Z,985.40
2022-12-16T01:42:28.095Z,985.42
2022-12-16T01:43:28.070Z,985.36
2022-12-16T01:44:28.066Z,985.38
2022-12-16T01:45:28.114Z,985.36
2022-12-16T01:46:28.118Z,985.39
2022-12-16T01:47:28.067Z,985.47
2022-12-16T01:48:28.029Z,985.43
2022-12-16T01:49:28.024Z,985.36
2022-12-16T01:50:28.024Z,985.39
2022-12-16T01:51:28.001Z,985.40
2022-12-16T01:52:28.018Z,985.36
2022-12-16T01:53:27.991Z,985.32
2022-12-16T01:54:27.990Z,985.42
2022-12-16T01:55:27.980Z,985.41
2022-12-16T01:56:27.980Z,985.43
2022-12-16T01:57:27.994Z,985.34
2022-12-16T01:58:27.961Z,985.38
2022-12-16T01:59:27.954Z,985.35
2022-12-16T02:00:27.948Z,985.40
2022-12-16T02:01:28.101Z,985.41
2022-12-16T02:02:28.096Z,985.43
2022-12-16T02:03:28.006Z,985.39
2022-12-16T02:04:27.918Z,985.28
2022-12-16T02:05:27.913Z,985.40
2022-12-16T02:06:27.913Z,985.38
2022-12-16T02:07:27.908Z,985.40
2022-12-16T02:08:27.919Z,985.40
2022-12-16T02:09:27.885Z,985.34
2022-12-16T02:10:27.882Z,985.41
2022-12-16T02:11:27.865Z,985.33
2022-12-16T02:12:27.864Z,985.44
2022-12-16T02:13:27.876Z,985.40
2022-12-16T02:14:27.842Z,985.37
2022-12-16T02:15:27.838Z,985.43
2022-12-16T02:16:27.978Z,985.44
2022-12-16T02:17:27.829Z,985.43
2022-12-16T02:18:27.847Z,985.41
2022-12-16T02:19:27.823Z,985.49
2022-12-16T02:20:27.810Z,985.41
2022-12-16T02:21:27.800Z,985.41
2022-12-16T02:22:27.794Z,985.49
2022-12-16T02:23:27.816Z,985.43
2022-12-16T02:24:27.774Z,985.41
2022-12-16T02:25:27.771Z,985.39
2022-12-16T02:26:27.764Z,985.51
2022-12-16T02:27:27.759Z,985.46
2022-12-16T02:28:27.777Z,985.45
2022-12-16T02:29:27.742Z,985.44
2022-12-16T02:30:27.756Z,985.37
2022-12-16T02:31:27.749Z,985.49
2022-12-16T02:32:27.724Z,985.43
2022-12-16T02:33:27.747Z,985.46
2022-12-16T02:34:27.722Z,985.42
2022-12-16T02:35:27.698Z,985.36
2022-12-16T02:36:27.696Z,985.46
2022-12-16T02:37:27.696Z,985.42
2022-12-16T02:38:27.751Z,985.45
2022-12-16T02:39:27.671Z,985.50
2022-12-16T02:40:27.672Z,985.51
2022-12-16T02:41:27.665Z,985.52
2022-12-16T02:42:27.659Z,985.54
2022-12-16T02:43:27.675Z,985.58
2022-12-16T02:44:27.641Z,985.56
2022-12-16T02:45:27.681Z,985.56
2022-12-16T02:46:27.631Z,985.57
2022-12-16T02:47:27.628Z,985.57
2022-12-16T02:48:27.640Z,985.59
2022-12-16T02:49:27.612Z,985.52
2022-12-16T02:50:27.604Z,985.58
2022-12-16T02:51:27.590Z,985.61
2022-12-16T02:52:27.589Z,985.70
2022-12-16T02:53:27.606Z,985.64
2022-12-16T02:54:27.569Z,985.62
2022-12-16T02:55:27.567Z,985.61
2022-12-16T02:56:27.558Z,985.69
2022-12-16T02:57:27.546Z,985.65
2022-12-16T02:58:27.570Z,985.69
2022-12-16T02:59:27.534Z,985.68
2022-12-16T03:00:27.532Z,985.62
2022-12-16T03:01:27.637Z,985.67
2022-12-16T03:02:27.718Z,985.60
2022-12-16T03:03:27.553Z,985.61
2022-12-16T03:04:27.532Z,985.63
2022-12-16T03:05:27.496Z,985.60
2022-12-16T03:06:27.487Z,985.65
2022-12-16T03:07:27.479Z,985.67
2022-12-16T03:08:27.477Z,985.64
2022-12-16T03:09:27.503Z,985.71
2022-12-16T03:10:27.463Z,985.68
2022-12-16T03:11:27.459Z,985.70
2022-12-16T03:12:27.450Z,985.72
2022-12-16T03:13:27.449Z,985.67
2022-12-16T03:14:27.464Z,985.71
2022-12-16T03:15:27.438Z,985.65
2022-12-16T03:16:27.638Z,985.63
2022-12-16T03:17:27.418Z,985.66
2022-12-16T03:18:27.410Z,985.69
2022-12-16T03:19:27.437Z,985.69
2022-12-16T03:20:27.390Z,985.67
2022-12-16T03:21:27.387Z,985.59
2022-12-16T03:22:27.382Z,985.62
2022-12-16T03:23:27.375Z,985.58
2022-12-16T03:24:27.842Z,985.61
2022-12-16T03:25:27.362Z,985.58
2022-12-16T03:26:27.354Z,985.57
2022-12-16T03:27:27.345Z,985.53
2022-12-16T03:28:27.341Z,985.59
2022-12-16T03:29:27.365Z,985.59
2022-12-16T03:30:27.384Z,985.55
2022-12-16T03:31:27.312Z,985.52
2022-12-16T03:32:27.314Z,985.49
2022-12-16T03:33:27.303Z,985.50
2022-12-16T03:34:27.325Z,985.51
2022-12-16T03:35:27.289Z,985.48
2022-12-16T03:36:27.281Z,985.52
2022-12-16T03:37:27.276Z,985.51
2022-12-16T03:38:27.272Z,985.54
2022-12-16T03:39:27.287Z,985.51
2022-12-16T03:40:27.257Z,985.48
2022-12-16T03:41:27.249Z,985.54
2022-12-16T03:42:27.245Z,985.58
2022-12-16T03:43:27.238Z,985.53
2022-12-16T03:44:27.256Z,985.57
2022-12-16T03:45:27.219Z,985.56
2022-12-16T03:46:27.249Z,985.63
2022-12-16T03:47:27.206Z,985.60
2022-12-16T03:48:27.203Z,985.52
2022-12-16T03:49:27.229Z,985.60
2022-12-16T03:50:27.187Z,985.52
2022-12-16T03:51:27.177Z,985.58
2022-12-16T03:52:27.172Z,985.58
2022-12-16T03:53:27.177Z,985.55
2022-12-16T03:54:27.183Z,985.65
2022-12-16T03:55:27.151Z,985.66
2022-12-16T03:56:27.182Z,985.62
2022-12-16T03:57:27.134Z,985.58
2022-12-16T03:58:27.134Z,985.62
2022-12-16T03:59:27.157Z,985.64
2022-12-16T04:00:27.115Z,985.60
2022-12-16T04:01:27.185Z,985.64
2022-12-16T04:02:27.309Z,985.60
2022-12-16T04:03:27.203Z,985.71
2022-12-16T04:04:27.118Z,985.61
2022-12-16T04:05:27.108Z,985.62
2022-12-16T04:06:27.073Z,985.74
2022-12-16T04:07:27.065Z,985.78
2022-12-16T04:08:27.058Z,985.72
2022-12-16T04:09:27.053Z,985.68
2022-12-16T04:10:27.076Z,985.75
2022-12-16T04:11:27.044Z,985.76
2022-12-16T04:12:27.032Z,985.76
2022-12-16T04:13:27.021Z,985.81
2022-12-16T04:14:27.018Z,985.84
2022-12-16T04:15:27.043Z,985.84
2022-12-16T04:16:27.065Z,985.79
2022-12-16T04:17:26.999Z,985.83
2022-12-16T04:18:26.998Z,985.87
2022-12-16T04:19:26.975Z,985.91
2022-12-16T04:20:28.006Z,985.86
2022-12-16T04:21:26.975Z,985.82
2022-12-16T04:22:26.966Z,985.87
2022-12-16T04:23:26.957Z,985.86
2022-12-16T04:24:26.961Z,985.83
2022-12-16T04:25:26.972Z,985.88
2022-12-16T04:26:26.945Z,985.89
2022-12-16T04:27:26.923Z,985.86
2022-12-16T04:28:26.924Z,985.91
2022-12-16T04:29:26.950Z,985.88
2022-12-16T04:30:26.941Z,985.86
2022-12-16T04:31:26.931Z,985.90
2022-12-16T04:32:26.899Z,985.97
2022-12-16T04:33:26.894Z,985.95
2022-12-16T04:34:26.891Z,985.91
2022-12-16T04:35:26.898Z,985.91
2022-12-16T04:36:26.874Z,985.89
2022-12-16T04:37:26.864Z,985.93
2022-12-16T04:38:26.856Z,985.94
2022-12-16T04:39:26.851Z,985.94
2022-12-16T04:40:26.875Z,985.94
2022-12-16T04:41:26.834Z,985.99
2022-12-16T04:42:26.828Z,985.97
2022-12-16T04:43:26.821Z,985.98
2022-12-16T04:44:26.816Z,985.99
2022-12-16T04:45:26.830Z,985.99
2022-12-16T04:46:26.871Z,985.94
2022-12-16T04:47:26.790Z,986.02
2022-12-16T04:48:26.791Z,986.01
2022-12-16T04:49:26.780Z,985.99
2022-12-16T04:50:26.797Z,985.94
2022-12-16T04:51:26.765Z,986.11
2022-12-16T04:52:26.753Z,986.08
2022-12-16T04:53:26.747Z,986.07
2022-12-16T04:54:26.743Z,986.14
2022-12-16T04:55:26.739Z,986.08
2022-12-16T04:56:26.755Z,986.08
2022-12-16T04:57:26.723Z,986.08
2022-12-16T04:58:26.713Z,986.07
2022-12-16T04:59:26.709Z,986.22
2022-12-16T05:00:26.700Z,986.13
2022-12-16T05:01:26.795Z,986.07
2022-12-16T05:02:26.867Z,986.11
2022-12-16T05:03:26.716Z,986.16
2022-12-16T05:04:26.672Z,986.21
2022-12-16T05:05:26.672Z,986.21
2022-12-16T05:06:26.697Z,986.24
2022-12-16T05:07:26.657Z,986.20
2022-12-16T05:08:26.645Z,986.26
2022-12-16T05:09:26.646Z,986.31
2022-12-16T05:10:26.639Z,986.28
2022-12-16T05:11:26.655Z,986.29
2022-12-16T05:12:26.622Z,986.28
2022-12-16T05:13:26.619Z,986.27
2022-12-16T05:14:26.616Z,986.34
2022-12-16T05:15:26.605Z,986.36
2022-12-16T05:16:26.682Z,986.36
2022-12-16T05:17:26.584Z,986.35
2022-12-16T05:18:26.585Z,986.37
2022-12-16T05:19:31.645Z,986.38
2022-12-16T05:20:27.567Z,986.32
2022-12-16T05:21:26.597Z,986.40
2022-12-16T05:22:26.556Z,986.40
2022-12-16T05:23:26.546Z,986.36
2022-12-16T05:24:26.540Z,986.41
2022-12-16T05:25:26.538Z,986.34
2022-12-16T05:26:26.562Z,986.42
2022-12-16T05:27:26.526Z,986.42
2022-12-16T05:28:26.521Z,986.40
2022-12-16T05:29:26.508Z,986.44
2022-12-16T05:30:31.963Z,986.41
2022-12-16T05:31:28.592Z,986.47
2022-12-16T05:32:27.490Z,986.45
2022-12-16T05:33:26.482Z,986.46
2022-12-16T05:34:26.480Z,986.42
2022-12-16T05:35:26.474Z,986.46
2022-12-16T05:36:26.463Z,986.46
2022-12-16T05:37:26.480Z,986.47
2022-12-16T05:38:26.451Z,986.51
2022-12-16T05:39:26.445Z,986.50
2022-12-16T05:40:26.447Z,986.53
2022-12-16T05:41:26.423Z,986.50
2022-12-16T05:42:26.469Z,986.57
2022-12-16T05:43:26.413Z,986.56
2022-12-16T05:44:26.406Z,986.55
2022-12-16T05:45:26.394Z,986.64
2022-12-16T05:46:26.544Z,986.68
2022-12-16T05:47:26.440Z,986.67
2022-12-16T05:48:26.404Z,986.67
2022-12-16T05:49:26.385Z,986.71
2022-12-16T05:50:26.437Z,986.70
2022-12-16T05:51:26.360Z,986.75
2022-12-16T05:52:26.375Z,986.71
2022-12-16T05:53:26.340Z,986.76
2022-12-16T05:54:26.330Z,986.80
2022-12-16T05:55:30.584Z,986.77
2022-12-16T05:56:28.311Z,986.90
2022-12-16T05:57:26.344Z,986.85
2022-12-16T05:58:26.319Z,986.85
2022-12-16T05:59:26.295Z,986.87
2022-12-16T06:00:26.295Z,986.95
2022-12-16T06:01:26.315Z,986.90
2022-12-16T06:02:26.421Z,986.89
2022-12-16T06:03:26.430Z,986.96
2022-12-16T06:04:26.302Z,986.88
2022-12-16T06:05:26.255Z,986.97
2022-12-16T06:06:26.245Z,986.97
2022-12-16T06:07:26.266Z,986.98
2022-12-16T06:08:27.230Z,986.96
2022-12-16T06:09:26.223Z,986.97
2022-12-16T06:10:26.215Z,986.98
2022-12-16T06:11:26.208Z,987.04
2022-12-16T06:12:26.200Z,987.12
2022-12-16T06:13:26.217Z,987.03
2022-12-16T06:14:26.183Z,987.06
2022-12-16T06:15:26.193Z,987.08
2022-12-16T06:16:26.199Z,987.12
2022-12-16T06:17:26.171Z,987.08
2022-12-16T06:18:26.185Z,987.26
2022-12-16T06:19:26.151Z,987.13
2022-12-16T06:20:26.144Z,987.16
2022-12-16T06:21:26.134Z,987.16
2022-12-16T06:22:26.128Z,987.14
2022-12-16T06:23:26.145Z,987.13
2022-12-16T06:24:26.126Z,987.15
2022-12-16T06:25:26.107Z,987.18
2022-12-16T06:26:26.100Z,987.23
2022-12-16T06:27:26.095Z,987.17
2022-12-16T06:28:26.111Z,987.21
2022-12-16T06:29:26.078Z,987.19
2022-12-16T06:30:26.070Z,987.23
2022-12-16T06:31:26.106Z,987.24
2022-12-16T06:32:26.051Z,987.31
2022-12-16T06:33:26.074Z,987.28
2022-12-16T06:34:26.046Z,987.32
2022-12-16T06:35:26.036Z,987.25
2022-12-16T06:36:26.026Z,987.24
2022-12-16T06:37:26.022Z,987.37
2022-12-16T06:38:26.041Z,987.35
2022-12-16T06:39:27.007Z,987.38
2022-12-16T06:40:25.999Z,987.42
2022-12-16T06:41:25.989Z,987.42
2022-12-16T06:42:25.983Z,987.43
2022-12-16T06:43:26.005Z,987.49
2022-12-16T06:44:25.965Z,987.55
2022-12-16T06:45:31.424Z,987.46
2022-12-16T06:46:28.010Z,987.45
2022-12-16T06:47:25.964Z,987.58
2022-12-16T06:48:25.994Z,987.48
2022-12-16T06:49:25.937Z,987.56
2022-12-16T06:50:25.928Z,987.57
2022-12-16T06:51:25.916Z,987.59
2022-12-16T06:52:25.908Z,987.55
2022-12-16T06:53:25.933Z,987.54
2022-12-16T06:54:25.901Z,987.57
2022-12-16T06:55:25.891Z,987.54
2022-12-16T06:56:25.881Z,987.67
2022-12-16T06:57:25.878Z,987.60
2022-12-16T06:58:25.903Z,987.70
2022-12-16T06:59:25.858Z,987.69
2022-12-16T07:00:25.856Z,987.61
2022-12-16T07:01:25.899Z,987.66
2022-12-16T07:02:25.906Z,987.67
2022-12-16T07:03:25.865Z,987.74
2022-12-16T07:04:25.828Z,987.65
2022-12-16T07:05:25.826Z,987.66
2022-12-16T07:06:25.818Z,987.70
2022-12-16T07:07:25.824Z,987.69
2022-12-16T07:08:25.831Z,987.72
2022-12-16T07:09:25.792Z,987.71
2022-12-16T07:10:25.784Z,987.76
2022-12-16T07:11:25.782Z,987.77
2022-12-16T07:12:25.771Z,987.81
2022-12-16T07:13:25.785Z,987.87
2022-12-16T07:14:26.757Z,987.84
2022-12-16T07:15:25.758Z,987.87
2022-12-16T07:16:25.815Z,987.85
2022-12-16T07:17:25.738Z,987.88
2022-12-16T07:18:25.732Z,987.88
2022-12-16T07:19:25.749Z,987.94
2022-12-16T07:20:25.717Z,987.88
2022-12-16T07:21:25.706Z,988.01
2022-12-16T07:22:25.699Z,987.95
2022-12-16T07:23:25.692Z,987.96
2022-12-16T07:24:25.862Z,987.98
2022-12-16T07:25:25.676Z,987.96
2022-12-16T07:26:25.666Z,987.99
2022-12-16T07:27:25.661Z,988.06
2022-12-16T07:28:25.655Z,988.06
2022-12-16T07:29:25.669Z,988.04
2022-12-16T07:30:25.637Z,987.97
2022-12-16T07:31:25.653Z,988.07
2022-12-16T07:32:25.631Z,988.12
2022-12-16T07:33:25.622Z,988.08
2022-12-16T07:34:25.642Z,988.17
2022-12-16T07:35:25.607Z,988.12
2022-12-16T07:36:25.601Z,988.08
2022-12-16T07:37:25.599Z,988.26
2022-12-16T07:38:25.603Z,988.18
2022-12-16T07:39:25.609Z,988.21
2022-12-16T07:40:25.587Z,988.20
2022-12-16T07:41:25.575Z,988.23
2022-12-16T07:42:25.558Z,988.23
2022-12-16T07:43:25.544Z,988.18
2022-12-16T07:44:26.570Z,988.26
2022-12-16T07:45:25.593Z,988.31
2022-12-16T07:46:25.600Z,988.34
2022-12-16T07:47:25.528Z,988.32
2022-12-16T07:48:25.520Z,988.45
2022-12-16T07:49:25.539Z,988.31
2022-12-16T07:50:25.505Z,988.43
2022-12-16T07:51:25.503Z,988.46
2022-12-16T07:52:25.516Z,988.51
2022-12-16T07:53:30.925Z,988.54
2022-12-16T07:54:27.515Z,988.50
2022-12-16T07:55:25.473Z,988.56
2022-12-16T07:56:25.459Z,988.53
2022-12-16T07:57:25.456Z,988.63
2022-12-16T07:58:25.486Z,988.59
2022-12-16T07:59:25.495Z,988.57
2022-12-16T08:00:25.442Z,988.66
2022-12-16T08:01:25.526Z,988.62
2022-12-16T08:02:25.633Z,988.63
2022-12-16T08:03:25.502Z,988.68
2022-12-16T08:04:25.399Z,988.65
2022-12-16T08:05:25.411Z,988.75
2022-12-16T08:06:26.387Z,988.70
2022-12-16T08:07:25.380Z,988.75
2022-12-16T08:08:25.376Z,988.72
2022-12-16T08:09:25.365Z,988.69
2022-12-16T08:10:25.385Z,988.70
2022-12-16T08:11:25.353Z,988.73
2022-12-16T08:12:25.349Z,988.78
2022-12-16T08:13:25.924Z,988.77
2022-12-16T08:14:26.365Z,988.81
2022-12-16T08:15:25.357Z,988.85
2022-12-16T08:16:25.413Z,988.84
2022-12-16T08:17:25.313Z,988.84
2022-12-16T08:18:25.295Z,988.84
2022-12-16T08:19:26.309Z,988.88
2022-12-16T08:20:25.320Z,988.83
2022-12-16T08:21:25.285Z,988.87
2022-12-16T08:22:25.279Z,988.80
2022-12-16T08:23:25.268Z,988.83
2022-12-16T08:24:25.267Z,988.80
2022-12-16T08:25:25.278Z,988.77
2022-12-16T08:26:25.247Z,988.83
2022-12-16T08:27:25.240Z,988.78
2022-12-16T08:28:25.238Z,988.73
2022-12-16T08:29:43.611Z,988.76
2022-12-16T08:30:27.409Z,988.78
2022-12-16T08:31:25.259Z,988.85
2022-12-16T08:32:25.203Z,988.86
2022-12-16T08:33:25.197Z,988.93
2022-12-16T08:34:25.193Z,988.88
2022-12-16T08:35:25.212Z,988.94
2022-12-16T08:36:25.178Z,989.00
2022-12-16T08:37:25.170Z,988.97
2022-12-16T08:38:25.165Z,988.96
2022-12-16T08:39:25.156Z,988.97
2022-12-16T08:40:35.390Z,989.02
2022-12-16T08:41:27.146Z,989.06
2022-12-16T08:42:25.138Z,989.06
2022-12-16T08:43:25.126Z,989.06
2022-12-16T08:44:25.123Z,989.08
2022-12-16T08:45:25.144Z,989.11
2022-12-16T08:46:25.168Z,989.11
2022-12-16T08:47:25.103Z,989.09
2022-12-16T08:48:25.092Z,989.17
2022-12-16T08:49:25.093Z,989.10
2022-12-16T08:50:25.149Z,989.15
2022-12-16T08:51:25.076Z,989.20
2022-12-16T08:52:25.085Z,989.16
2022-12-16T08:53:25.092Z,989.23
2022-12-16T08:54:25.059Z,989.22
2022-12-16T08:55:29.471Z,989.21
2022-12-16T08:56:26.037Z,989.29
2022-12-16T08:57:25.031Z,989.20
2022-12-16T08:58:25.023Z,989.32
2022-12-16T08:59:25.019Z,989.24
2022-12-16T09:00:25.042Z,989.28
2022-12-16T09:01:25.136Z,989.27
2022-12-16T09:02:25.301Z,989.25
2022-12-16T09:03:25.047Z,989.30
2022-12-16T09:04:24.982Z,989.25
2022-12-16T09:05:24.977Z,989.29
2022-12-16T09:06:24.994Z,989.33
2022-12-16T09:07:24.963Z,989.26
2022-12-16T09:08:24.977Z,989.32
2022-12-16T09:09:24.950Z,989.34
2022-12-16T09:10:24.942Z,989.33
2022-12-16T09:11:24.950Z,989.37
2022-12-16T09:12:25.927Z,989.34
2022-12-16T09:13:24.924Z,989.37
2022-12-16T09:14:24.919Z,989.43
2022-12-16T09:15:24.958Z,989.42
2022-12-16T09:16:24.951Z,989.43
2022-12-16T09:17:24.893Z,989.35
2022-12-16T09:18:24.886Z,989.44
2022-12-16T09:19:24.882Z,989.37
2022-12-16T09:20:24.879Z,989.45
2022-12-16T09:21:27.707Z,989.46
2022-12-16T09:22:25.856Z,989.45
2022-12-16T09:23:24.849Z,989.52
2022-12-16T09:24:24.849Z,989.52
2022-12-16T09:25:24.841Z,989.50
2022-12-16T09:26:24.888Z,989.56
2022-12-16T09:27:24.829Z,989.59
2022-12-16T09:28:24.814Z,989.61
2022-12-16T09:29:24.805Z,989.57
2022-12-16T09:30:24.800Z,989.61
2022-12-16T09:31:24.900Z,989.59
2022-12-16T09:32:24.784Z,989.61
2022-12-16T09:33:24.781Z,989.62
2022-12-16T09:34:24.787Z,989.58
2022-12-16T09:35:24.792Z,989.68
2022-12-16T09:36:24.862Z,989.64
2022-12-16T09:37:24.750Z,989.70
2022-12-16T09:38:24.740Z,989.69
2022-12-16T09:39:24.730Z,989.73
2022-12-16T09:40:24.722Z,989.74
2022-12-16T09:41:24.745Z,989.79
2022-12-16T09:42:24.709Z,989.83
2022-12-16T09:43:24.707Z,989.77
2022-12-16T09:44:24.699Z,989.80
2022-12-16T09:45:24.689Z,989.83
2022-12-16T09:46:24.757Z,989.76
2022-12-16T09:47:24.692Z,989.82
2022-12-16T09:48:24.670Z,989.76
2022-12-16T09:49:24.657Z,989.80
2022-12-16T09:50:24.654Z,989.87
2022-12-16T09:51:24.671Z,989.88
2022-12-16T09:52:24.638Z,989.89
2022-12-16T09:53:24.630Z,989.84
2022-12-16T09:54:24.623Z,989.82
2022-12-16T09:55:24.639Z,989.86
2022-12-16T09:56:24.642Z,989.87
2022-12-16T09:57:24.601Z,989.86
2022-12-16T09:58:24.596Z,989.82
2022-12-16T09:59:24.590Z,989.92
2022-12-16T10:00:24.585Z,989.84
2022-12-16T10:01:24.685Z,989.90
2022-12-16T10:02:24.737Z,989.83
2022-12-16T10:03:24.660Z,989.76
2022-12-16T10:04:24.598Z,989.82
2022-12-16T10:05:24.546Z,989.75
2022-12-16T10:06:24.598Z,989.79
2022-12-16T10:07:24.530Z,989.79
2022-12-16T10:08:24.524Z,989.74
2022-12-16T10:09:24.518Z,989.79
2022-12-16T10:10:24.507Z,989.74
2022-12-16T10:11:24.531Z,989.79
2022-12-16T10:12:24.499Z,989.78
2022-12-16T10:13:24.486Z,989.75
2022-12-16T10:14:24.481Z,989.74
2022-12-16T10:15:24.468Z,989.76
2022-12-16T10:16:24.559Z,989.81
2022-12-16T10:17:24.454Z,989.78
2022-12-16T10:18:24.482Z,989.77
2022-12-16T10:19:24.439Z,989.72
2022-12-16T10:20:24.431Z,989.79
2022-12-16T10:21:24.450Z,989.73
2022-12-16T10:22:24.430Z,989.82
2022-12-16T10:23:24.424Z,989.76
2022-12-16T10:24:24.401Z,989.83
2022-12-16T10:25:25.429Z,989.82
2022-12-16T10:26:25.431Z,989.80
2022-12-16T10:27:24.384Z,989.81
2022-12-16T10:28:24.375Z,989.83
2022-12-16T10:29:24.367Z,989.80
2022-12-16T10:30:24.360Z,989.83
2022-12-16T10:31:28.218Z,989.80
2022-12-16T10:32:26.369Z,989.85
2022-12-16T10:33:24.337Z,989.87
2022-12-16T10:34:24.331Z,989.86
2022-12-16T10:35:24.323Z,989.81
2022-12-16T10:36:24.315Z,989.77
2022-12-16T10:37:24.331Z,989.79
2022-12-16T10:38:24.315Z,989.81
2022-12-16T10:39:24.317Z,989.82
2022-12-16T10:40:24.288Z,989.80
2022-12-16T10:41:24.286Z,989.79
2022-12-16T10:42:24.299Z,989.81
2022-12-16T10:43:24.274Z,989.80
2022-12-16T10:44:24.256Z,989.78
2022-12-16T10:45:24.246Z,989.77
2022-12-16T10:46:24.307Z,989.81
2022-12-16T10:47:24.265Z,989.76
2022-12-16T10:48:24.231Z,989.83
2022-12-16T10:49:24.308Z,989.78
2022-12-16T10:50:24.211Z,989.80
2022-12-16T10:51:24.207Z,989.79
2022-12-16T10:52:24.228Z,989.78
2022-12-16T10:53:24.187Z,989.82
2022-12-16T10:54:24.191Z,989.82
2022-12-16T10:55:24.191Z,989.86
2022-12-16T10:56:24.172Z,989.85
2022-12-16T10:57:24.192Z,989.82
2022-12-16T10:58:24.155Z,989.86
2022-12-16T10:59:24.144Z,989.89
2022-12-16T11:00:24.140Z,989.87
2022-12-16T11:01:24.198Z,989.91
2022-12-16T11:02:24.329Z,989.94
2022-12-16T11:03:24.288Z,989.88
2022-12-16T11:04:24.183Z,989.92
2022-12-16T11:05:24.107Z,989.87
2022-12-16T11:06:24.097Z,989.88
2022-12-16T11:07:24.119Z,989.87
2022-12-16T11:08:24.086Z,989.89
2022-12-16T11:09:24.074Z,989.92
2022-12-16T11:10:24.128Z,989.91
2022-12-16T11:11:24.059Z,989.91
2022-12-16T11:12:24.111Z,989.96
2022-12-16T11:13:24.044Z,989.98
2022-12-16T11:14:24.039Z,989.98
2022-12-16T11:15:31.199Z,989.94
2022-12-16T11:16:26.124Z,989.92
2022-12-16T11:17:24.015Z,990.00
2022-12-16T11:18:24.039Z,989.99
2022-12-16T11:19:23.998Z,990.00
2022-12-16T11:20:24.003Z,990.00
2022-12-16T11:21:24.011Z,990.02
2022-12-16T11:22:23.973Z,990.00
2022-12-16T11:23:24.002Z,989.95
2022-12-16T11:24:23.963Z,990.02
2022-12-16T11:25:23.955Z,990.02
2022-12-16T11:26:23.946Z,990.00
2022-12-16T11:27:23.960Z,990.04
2022-12-16T11:28:23.960Z,990.05
2022-12-16T11:29:23.921Z,990.04
2022-12-16T11:30:23.918Z,990.11
2022-12-16T11:31:23.934Z,990.06
2022-12-16T11:32:23.896Z,989.98
2022-12-16T11:33:23.917Z,990.11
2022-12-16T11:34:23.889Z,990.01
2022-12-16T11:35:23.877Z,989.99
2022-12-16T11:36:23.894Z,990.04
2022-12-16T11:37:23.864Z,990.02
2022-12-16T11:38:23.888Z,990.10
2022-12-16T11:39:23.845Z,990.10
2022-12-16T11:40:23.842Z,990.05
2022-12-16T11:41:23.835Z,990.01
2022-12-16T11:42:23.825Z,990.07
2022-12-16T11:43:23.843Z,990.06
2022-12-16T11:44:23.815Z,990.03
2022-12-16T11:45:23.805Z,990.01
2022-12-16T11:46:23.842Z,990.09
2022-12-16T11:47:23.790Z,989.99
2022-12-16T11:48:23.807Z,990.08
2022-12-16T11:49:25.421Z,990.10
2022-12-16T11:50:24.763Z,990.01
2022-12-16T11:51:23.762Z,990.06
2022-12-16T11:52:39.218Z,990.08
2022-12-16T11:53:25.777Z,990.25
2022-12-16T11:54:23.736Z,990.14
2022-12-16T11:55:41.709Z,990.15
2022-12-16T11:56:25.755Z,990.17
2022-12-16T11:57:23.760Z,990.26
2022-12-16T11:58:23.733Z,990.27
2022-12-16T11:59:24.297Z,990.21
2022-12-16T12:00:23.690Z,990.22
2022-12-16T12:01:23.735Z,990.18
2022-12-16T12:02:23.725Z,990.23
2022-12-16T12:03:23.884Z,990.24
2022-12-16T12:04:23.725Z,990.27
2022-12-16T12:05:23.655Z,990.26
2022-12-16T12:06:23.645Z,990.29
2022-12-16T12:07:23.644Z,990.22
2022-12-16T12:08:23.653Z,990.29
2022-12-16T12:09:23.624Z,990.26
2022-12-16T12:10:23.667Z,990.27
2022-12-16T12:11:23.597Z,990.31
2022-12-16T12:12:24.600Z,990.30
2022-12-16T12:13:23.621Z,990.28
2022-12-16T12:14:23.593Z,990.31
2022-12-16T12:15:23.583Z,990.38
2022-12-16T12:16:23.613Z,990.35
2022-12-16T12:17:23.569Z,990.38
2022-12-16T12:18:23.552Z,990.42
2022-12-16T12:19:23.572Z,990.31
2022-12-16T12:20:23.546Z,990.36
2022-12-16T12:21:23.535Z,990.41
2022-12-16T12:22:23.526Z,990.39
2022-12-16T12:23:23.515Z,990.44
2022-12-16T12:24:23.539Z,990.45
2022-12-16T12:25:23.509Z,990.49
2022-12-16T12:26:23.497Z,990.39
2022-12-16T12:27:23.488Z,990.40
2022-12-16T12:28:23.482Z,990.38